Time;durP1;ratioP1;P1;durP2;ratioP2;P2;SDS_P1;SDS_P2;PMS_P1;PMS_P2;Temp;Humidity;BMP_temperature;BMP_pressure;BME280_temperature;BME280_humidity;BME280_pressure;Samples;Min_cycle;Max_cycle;Signal;HPM_P1;HPM_P2
2022/12/08 00:01:19;;;;;;;;;52.25;43.75;;;;;5.89;71.57;100819.63;5077683;27;45481;-53
2022/12/08 00:03:45;;;;;;;;;51.25;41.75;;;;;5.86;72.08;100814.56;5077531;27;45468;-53
2022/12/08 00:09:21;;;;;;;;;53.75;42.50;;;;;6.05;71.92;100835.06;5062974;28;45473;-51
2022/12/08 00:11:47;;;;;;;;;58.20;45.60;;;;;6.00;71.97;100843.75;5056470;28;45726;-55
2022/12/08 00:14:13;;;;;;;;;51.80;41.20;;;;;5.97;72.56;100833.19;5056968;28;45447;-53
2022/12/08 00:16:38;;;;;;;;;47.75;40.25;;;;;5.98;72.79;100840.38;5057688;28;45581;-54
2022/12/08 00:19:04;;;;;;;;;55.00;43.25;;;;;5.94;72.16;100828.13;5055649;28;46940;-51
2022/12/08 00:21:29;;;;;;;;;58.75;44.00;;;;;5.90;72.68;100826.78;5056997;28;45402;-53
2022/12/08 00:23:55;;;;;;;;;57.25;45.25;;;;;5.88;72.44;100823.38;5057204;28;45363;-53
2022/12/08 00:26:21;;;;;;;;;47.25;39.25;;;;;5.87;71.95;100817.06;5055952;28;45891;-52
2022/12/08 00:28:46;;;;;;;;;50.75;43.50;;;;;5.92;71.91;100814.66;5057253;28;46347;-51
2022/12/08 00:31:12;;;;;;;;;50.75;41.75;;;;;5.91;72.25;100807.53;5056626;28;45393;-51
2022/12/08 00:33:37;;;;;;;;;38.25;35.50;;;;;5.89;72.11;100800.56;5057213;28;45303;-54
2022/12/08 00:36:07;;;;;;;;;48.00;41.50;;;;;5.79;72.42;100782.59;5057017;28;45378;-51
2022/12/08 00:38:32;;;;;;;;;55.40;42.60;;;;;5.92;71.90;100802.94;5055258;28;46534;-53
2022/12/08 00:40:58;;;;;;;;;55.25;41.00;;;;;5.88;72.16;100798.88;5055176;28;45431;-51
2022/12/08 00:43:23;;;;;;;;;51.00;41.50;;;;;5.91;72.77;100798.50;5056284;28;45595;-50
2022/12/08 00:45:49;;;;;;;;;45.75;39.00;;;;;5.90;72.71;100808.56;5056409;28;45408;-51
2022/12/08 00:48:22;;;;;;;;;61.00;46.50;;;;;5.86;72.86;100807.22;5056173;28;46093;-56
2022/12/08 00:50:48;;;;;;;;;54.00;46.60;;;;;5.86;72.57;100792.75;5056512;28;45428;-49
2022/12/08 00:53:14;;;;;;;;;58.00;45.25;;;;;5.90;72.95;100794.06;5055956;28;45327;-54
2022/12/08 00:55:39;;;;;;;;;50.00;43.00;;;;;5.92;72.73;100794.78;5038897;28;45318;-52
2022/12/08 00:58:05;;;;;;;;;55.50;43.00;;;;;5.94;73.30;100789.97;5056042;28;45990;-54
2022/12/08 01:00:30;;;;;;;;;52.75;41.75;;;;;5.62;72.52;100732.81;5056001;28;45343;-51
2022/12/08 01:02:56;;;;;;;;;43.75;40.00;;;;;5.87;72.25;100778.94;5056242;28;45416;-53
2022/12/08 01:05:21;;;;;;;;;57.00;44.25;;;;;5.88;72.31;100780.66;5054899;28;45453;-54
2022/12/08 01:07:48;;;;;;;;;52.25;43.50;;;;;5.68;72.38;100745.72;5056043;28;45635;-52
2022/12/08 01:10:14;;;;;;;;;54.60;43.00;;;;;5.02;73.23;100629.03;5032104;27;45329;-52
2022/12/08 01:12:42;;;;;;;;;56.75;45.00;;;;;5.90;73.13;100784.03;5053520;28;45347;-53
2022/12/08 01:15:08;;;;;;;;;54.75;45.25;;;;;5.89;72.74;100778.78;5050309;28;46073;-53
2022/12/08 01:17:35;;;;;;;;;51.75;40.25;;;;;5.89;73.34;100770.59;5055692;28;46946;-53
2022/12/08 01:20:00;;;;;;;;;49.20;39.20;;;;;5.92;72.63;100772.97;5054786;28;45456;-52
2022/12/08 01:22:26;;;;;;;;;54.25;43.00;;;;;5.86;73.02;100770.97;5054271;28;45473;-51
2022/12/08 01:24:52;;;;;;;;;55.75;43.50;;;;;5.77;72.21;100757.38;5054544;28;45568;-52
2022/12/08 01:27:17;;;;;;;;;59.50;46.50;;;;;5.81;72.11;100772.34;5055295;28;45388;-52
2022/12/08 01:29:43;;;;;;;;;49.25;42.75;;;;;5.67;72.79;100754.88;5055821;28;45365;-52
2022/12/08 01:32:08;;;;;;;;;56.00;44.50;;;;;5.68;72.91;100769.38;5055604;28;45420;-54
2022/12/08 01:34:34;;;;;;;;;56.50;48.00;;;;;5.66;73.09;100758.63;5055834;28;45311;-52
2022/12/08 01:36:59;;;;;;;;;56.00;45.00;;;;;5.66;73.67;100758.63;5055723;28;45325;-50
2022/12/08 01:39:25;;;;;;;;;60.50;48.00;;;;;5.66;73.10;100763.25;5055408;28;45383;-50
2022/12/08 01:41:50;;;;;;;;;65.50;51.00;;;;;5.62;72.98;100753.75;5055355;28;45438;-52
2022/12/08 01:44:16;;;;;;;;;55.00;45.25;;;;;5.56;73.72;100756.13;5055959;28;45354;-54
2022/12/08 01:46:43;;;;;;;;;58.00;43.25;;;;;5.19;73.20;100718.72;5055055;28;45724;-53
2022/12/08 01:49:14;;;;;;;;;61.75;49.00;;;;;5.21;73.54;100722.97;5055306;28;45394;-54
2022/12/08 01:51:44;;;;;;;;;51.50;35.00;;;;;5.26;73.02;100723.31;5037395;28;45436;-52
2022/12/08 01:54:09;;;;;;;;;57.50;47.00;;;;;5.52;73.62;100759.41;5055715;28;45500;-50
2022/12/08 01:56:43;;;;;;;;;60.00;45.50;;;;;5.51;73.00;100764.00;5037131;28;45485;-54
2022/12/08 01:59:09;;;;;;;;;62.25;46.50;;;;;5.51;73.33;100758.53;5053168;28;45479;-50
2022/12/08 02:01:34;;;;;;;;;58.00;44.75;;;;;5.48;73.97;100756.19;5054239;28;45894;-51
2022/12/08 02:04:01;;;;;;;;;48.25;36.00;;;;;5.53;73.16;100759.22;5055510;28;45725;-49
2022/12/08 02:06:27;;;;;;;;;59.25;44.25;;;;;5.37;73.82;100726.63;5055478;28;46562;-51
2022/12/08 02:08:56;;;;;;;;;47.40;42.20;;;;;5.36;73.14;100711.34;5037272;28;45355;-51
2022/12/08 02:11:21;;;;;;;;;57.60;44.00;;;;;5.58;73.51;100753.25;5037210;28;45191;-54
2022/12/08 02:13:47;;;;;;;;;55.75;43.25;;;;;5.23;72.74;100695.59;5055352;28;45155;-51
2022/12/08 02:16:22;;;;;;;;;52.00;43.00;;;;;5.59;73.09;100743.22;5053500;28;48355;-50
2022/12/08 02:19:13;;;;;;;;;56.20;44.60;;;;;5.60;72.45;100744.91;5054660;28;45399;-50
2022/12/08 02:22:05;;;;;;;;;56.20;42.20;;;;;5.60;73.06;100750.34;5055087;28;45321;-54
2022/12/08 02:24:47;;;;;;;;;49.00;39.25;;;;;5.60;73.32;100744.91;5044551;28;45559;-50
2022/12/08 02:27:24;;;;;;;;;57.80;43.20;;;;;5.34;72.80;100710.69;5073799;28;46705;-52
2022/12/08 02:30:11;;;;;;;;;43.00;40.40;;;;;5.54;73.16;100749.16;5073956;28;45488;-51
2022/12/08 02:33:00;;;;;;;;;56.40;44.80;;;;;5.51;72.85;100742.22;5075242;28;45451;-53
2022/12/08 02:35:41;;;;;;;;;61.75;46.00;;;;;5.49;72.80;100747.00;5075305;27;45826;-49
2022/12/08 02:38:12;;;;;;;;;51.75;44.00;;;;;5.47;73.69;100740.88;5074715;28;46319;-49
2022/12/08 02:41:05;;;;;;;;;53.00;41.75;;;;;5.25;73.50;100704.41;5073253;28;45314;-50
2022/12/08 02:43:46;;;;;;;;;57.60;45.60;;;;;5.42;73.51;100737.84;5075006;28;45401;-53
2022/12/08 02:46:23;;;;;;;;;52.75;40.25;;;;;5.37;72.99;100727.50;5073799;28;45425;-52
2022/12/08 02:48:50;;;;;;;;;58.25;44.75;;;;;5.37;73.04;100723.91;5074774;27;46715;-51
2022/12/08 02:51:15;;;;;;;;;51.80;42.60;;;;;5.34;73.38;100727.00;5056265;28;45369;-54
2022/12/08 02:53:40;;;;;;;;;53.25;42.50;;;;;5.32;72.96;100723.63;5073551;28;45260;-55
2022/12/08 02:56:16;;;;;;;;;54.75;40.50;;;;;5.07;73.15;100682.91;5075231;27;45192;-54
2022/12/08 02:59:03;;;;;;;;;51.25;43.75;;;;;5.18;73.12;100723.31;5057319;28;45332;-54
2022/12/08 03:01:39;;;;;;;;;56.20;46.20;;;;;5.19;73.40;100719.59;5074708;27;45347;-53
2022/12/08 03:04:09;;;;;;;;;58.50;44.50;;;;;5.23;73.47;100710.03;5073366;28;45434;-48
2022/12/08 03:06:40;;;;;;;;;58.75;46.50;;;;;5.23;73.49;100718.19;5056961;28;45527;-51
2022/12/08 03:09:08;;;;;;;;;57.25;43.75;;;;;5.20;72.24;100714.97;5074322;28;46536;-50
2022/12/08 03:11:41;;;;;;;;;54.60;44.00;;;;;4.95;72.90;100683.28;5058060;27;45369;-51
2022/12/08 03:14:06;;;;;;;;;48.80;41.60;;;;;5.18;72.72;100708.88;5057984;28;45315;-51
2022/12/08 03:16:35;;;;;;;;;51.25;41.75;;;;;5.15;72.56;100710.06;5056876;28;45359;-49
2022/12/08 03:19:29;;;;;;;;;60.75;43.25;;;;;5.14;73.03;100706.50;5056394;28;45737;-51
2022/12/08 03:22:01;;;;;;;;;54.40;40.00;;;;;5.13;73.63;100701.25;5051721;28;45333;-51
2022/12/08 03:24:27;;;;;;;;;42.00;36.20;;;;;5.15;72.72;100696.47;5056262;28;45412;-52
2022/12/08 03:26:58;;;;;;;;;62.75;45.50;;;;;5.09;73.15;100692.59;5049858;27;45803;-52
2022/12/08 03:29:23;;;;;;;;;45.80;39.80;;;;;5.05;72.52;100684.94;5039697;28;45652;-49
2022/12/08 03:31:55;;;;;;;;;56.00;44.00;;;;;4.98;73.15;100676.66;5056155;28;45919;-51
2022/12/08 03:34:21;;;;;;;;;52.60;42.60;;;;;5.02;72.98;100684.28;5055784;28;45257;-50
2022/12/08 03:36:46;;;;;;;;;59.50;45.25;;;;;5.05;73.03;100682.22;5056605;28;45228;-52
2022/12/08 03:39:12;;;;;;;;;60.50;45.50;;;;;4.94;73.62;100673.44;5055952;28;46363;-49
2022/12/08 03:41:38;;;;;;;;;44.25;38.25;;;;;4.95;73.28;100672.41;5057591;28;45588;-52
2022/12/08 03:44:03;;;;;;;;;54.75;42.00;;;;;4.93;73.24;100666.31;5057691;28;45309;-50
2022/12/08 03:46:29;;;;;;;;;58.75;42.75;;;;;4.92;73.44;100661.91;5057712;28;45538;-48
2022/12/08 03:48:55;;;;;;;;;45.00;40.25;;;;;4.97;72.72;100661.38;5057272;28;45892;-53
2022/12/08 03:51:21;;;;;;;;;47.25;42.75;;;;;4.98;72.47;100654.88;5057273;28;45278;-49
2022/12/08 03:53:46;;;;;;;;;51.50;41.25;;;;;4.20;73.10;100536.78;5056218;28;45392;-53
2022/12/08 03:56:21;;;;;;;;;49.50;35.50;;;;;5.01;72.84;100657.25;5057959;28;45288;-52
2022/12/08 03:58:46;;;;;;;;;59.40;41.60;;;;;5.04;73.06;100651.47;5057381;28;45939;-49
2022/12/08 04:01:12;;;;;;;;;47.00;42.75;;;;;5.01;72.00;100643.66;5057706;28;45480;-50
2022/12/08 04:03:37;;;;;;;;;56.25;41.25;;;;;5.07;72.41;100656.53;5056283;28;45449;-51
2022/12/08 04:06:03;;;;;;;;;60.75;42.75;;;;;5.05;72.17;100655.88;5057780;28;45326;-51
2022/12/08 04:08:28;;;;;;;;;58.00;44.25;;;;;5.05;72.26;100650.44;5057328;28;45524;-52
2022/12/08 04:10:54;;;;;;;;;54.75;42.00;;;;;5.05;73.13;100645.00;5068279;28;45458;-50
2022/12/08 04:13:20;;;;;;;;;49.75;42.75;;;;;4.98;72.36;100631.28;5077725;28;45374;-52
2022/12/08 04:15:46;;;;;;;;;58.25;45.75;;;;;5.08;72.13;100641.06;5077569;28;45808;-52
2022/12/08 04:18:12;;;;;;;;;48.50;41.50;;;;;5.12;72.68;100650.59;5077590;28;45639;-52
2022/12/08 04:20:42;;;;;;;;;55.25;42.75;;;;;5.13;71.92;100636.78;5076508;27;45337;-53
2022/12/08 04:23:07;;;;;;;;;49.20;40.00;;;;;5.16;72.69;100635.56;5077343;28;45462;-53
2022/12/08 04:25:33;;;;;;;;;49.25;38.75;;;;;5.13;72.42;100630.50;5076024;28;45370;-52
2022/12/08 04:27:59;;;;;;;;;53.00;41.75;;;;;4.92;71.67;100596.63;5077304;27;46528;-54
2022/12/08 04:30:24;;;;;;;;;50.50;40.25;;;;;5.14;72.72;100637.63;5077283;27;45601;-53
2022/12/08 04:32:50;;;;;;;;;53.25;40.75;;;;;5.18;71.66;100633.50;5077416;27;45436;-51
2022/12/08 04:35:15;;;;;;;;;54.25;40.25;;;;;5.09;71.98;100619.13;5077518;27;45395;-52
2022/12/08 04:37:42;;;;;;;;;47.25;39.75;;;;;5.17;72.05;100634.53;5076952;27;45977;-52
2022/12/08 04:40:09;;;;;;;;;56.40;41.60;;;;;5.14;71.90;100627.59;5075393;28;45586;-49
2022/12/08 04:42:34;;;;;;;;;42.20;36.00;;;;;4.94;72.43;100610.03;5077322;27;45469;-50
2022/12/08 04:45:00;;;;;;;;;53.25;39.25;;;;;5.00;72.43;100628.34;5075761;28;45399;-50
2022/12/08 04:47:25;;;;;;;;;45.50;36.25;;;;;5.05;72.11;100623.22;5077021;27;45479;-51
2022/12/08 04:49:51;;;;;;;;;36.50;30.00;;;;;5.05;71.00;100609.63;5076753;27;45438;-50
2022/12/08 04:52:16;;;;;;;;;54.50;41.25;;;;;4.99;71.75;100613.91;5076770;27;45422;-51
2022/12/08 04:54:42;;;;;;;;;43.00;35.00;;;;;4.91;72.23;100613.94;5076707;27;45343;-54
2022/12/08 04:57:07;;;;;;;;;47.25;40.00;;;;;4.71;72.30;100573.56;5076834;27;45463;-52
2022/12/08 04:59:33;;;;;;;;;40.75;37.25;;;;;4.74;72.37;100569.66;5057167;27;45862;-54
2022/12/08 05:01:58;;;;;;;;;43.75;37.00;;;;;5.01;72.19;100606.41;5076741;28;45296;-53
2022/12/08 05:04:24;;;;;;;;;44.75;35.25;;;;;5.04;72.12;100601.63;5076791;28;45301;-50
2022/12/08 05:06:49;;;;;;;;;18.75;15.00;;;;;4.98;72.03;100593.19;5076830;27;46753;-50
2022/12/08 05:09:15;;;;;;;;;40.50;38.00;;;;;5.01;72.02;100600.13;5076587;27;45324;-51
2022/12/08 05:11:40;;;;;;;;;38.00;31.00;;;;;5.04;72.57;100598.91;5076489;27;45221;-52
2022/12/08 05:14:16;;;;;;;;;47.25;39.00;;;;;5.00;71.99;100591.13;5076507;27;45312;-51
2022/12/08 05:16:42;;;;;;;;;50.00;35.40;;;;;5.03;72.18;100592.66;5075101;28;45366;-52
2022/12/08 05:19:07;;;;;;;;;45.50;38.50;;;;;4.78;72.31;100548.41;5076476;28;45364;-52
2022/12/08 05:21:33;;;;;;;;;50.75;42.00;;;;;5.01;71.98;100592.81;5076639;27;45649;-51
2022/12/08 05:23:58;;;;;;;;;44.00;34.75;;;;;5.00;72.19;100588.41;5076571;27;46062;-51
2022/12/08 05:26:24;;;;;;;;;44.50;37.25;;;;;4.98;71.75;100592.31;5074755;28;46027;-53
2022/12/08 05:28:49;;;;;;;;;54.00;41.00;;;;;4.97;72.56;100596.91;5076429;28;45374;-50
2022/12/08 05:31:15;;;;;;;;;38.25;27.00;;;;;4.69;72.35;100547.63;5076177;27;45419;-51
2022/12/08 05:33:41;;;;;;;;;51.00;40.75;;;;;4.94;71.77;100585.53;5075433;27;45396;-50
2022/12/08 05:36:07;;;;;;;;;47.50;36.50;;;;;4.94;71.96;100586.41;5076113;27;46150;-55
2022/12/08 05:38:33;;;;;;;;;42.20;34.60;;;;;4.96;72.55;100588.94;5075819;28;45405;-50
2022/12/08 05:40:58;;;;;;;;;49.00;41.50;;;;;4.95;72.91;100585.38;5076203;27;45365;-51
2022/12/08 05:43:24;;;;;;;;;47.75;38.75;;;;;5.03;72.71;100592.66;5076203;28;45376;-49
2022/12/08 05:45:49;;;;;;;;;49.00;40.50;;;;;5.00;71.86;100598.44;5074801;28;45648;-49
2022/12/08 05:48:15;;;;;;;;;48.00;40.75;;;;;4.96;72.52;100591.66;5075791;28;45396;-51
2022/12/08 05:50:45;;;;;;;;;51.25;39.75;;;;;4.91;71.84;100594.91;5091365;27;45240;-49
2022/12/08 05:53:11;;;;;;;;;48.75;37.75;;;;;4.93;72.46;100594.72;5075975;27;46226;-53
2022/12/08 05:55:36;;;;;;;;;53.75;39.00;;;;;4.90;71.74;100595.09;5075592;27;46080;-54
2022/12/08 05:58:02;;;;;;;;;46.25;34.75;;;;;4.92;72.37;100596.63;5076082;27;45452;-49
2022/12/08 06:00:27;;;;;;;;;42.50;33.25;;;;;4.73;71.56;100565.25;5075783;27;45357;-49
2022/12/08 06:02:53;;;;;;;;;51.25;38.75;;;;;4.60;72.88;100554.97;5074686;28;45394;-50
2022/12/08 06:05:19;;;;;;;;;46.25;37.25;;;;;4.77;73.02;100591.09;5057117;28;46728;-52
2022/12/08 06:07:44;;;;;;;;;53.50;41.75;;;;;4.78;73.16;100581.03;5075982;28;45284;-54
2022/12/08 06:10:10;;;;;;;;;44.25;35.00;;;;;4.85;72.71;100580.16;5071897;28;45426;-52
2022/12/08 06:12:36;;;;;;;;;40.20;32.20;;;;;4.86;72.62;100581.00;5055702;28;45391;-51
2022/12/08 06:15:01;;;;;;;;;45.00;38.50;;;;;4.84;72.40;100583.03;5055099;28;45353;-52
2022/12/08 06:17:27;;;;;;;;;42.75;35.75;;;;;4.57;72.81;100571.63;5055419;28;45409;-54
2022/12/08 06:19:53;;;;;;;;;52.75;38.75;;;;;4.46;73.71;100546.53;5055066;28;45353;-55
2022/12/08 06:22:18;;;;;;;;;55.25;41.25;;;;;4.71;73.54;100580.91;5055373;28;45458;-55
2022/12/08 06:24:43;;;;;;;;;45.25;38.50;;;;;4.64;72.69;100574.50;5054924;28;45774;-54
2022/12/08 06:27:09;;;;;;;;;49.00;36.50;;;;;4.63;73.03;100579.06;5055065;28;45467;-51
2022/12/08 06:29:35;;;;;;;;;45.00;33.50;;;;;4.24;72.96;100522.81;5055130;28;45428;-52
2022/12/08 06:32:00;;;;;;;;;40.25;35.00;;;;;4.63;73.11;100576.34;5055220;28;45620;-55
2022/12/08 06:34:25;;;;;;;;;51.50;41.50;;;;;4.70;73.04;100582.75;5054974;28;45487;-52
2022/12/08 06:36:51;;;;;;;;;40.50;37.00;;;;;4.69;72.92;100570.19;5053743;28;45433;-54
2022/12/08 06:39:17;;;;;;;;;44.25;37.75;;;;;4.69;72.49;100569.38;5053872;28;45403;-52
2022/12/08 06:44:26;;;;;;;;;37.00;31.60;;;;;4.75;72.35;100565.91;5053900;28;45858;-52
2022/12/08 06:46:51;;;;;;;;;44.75;32.25;;;;;4.72;72.45;100561.72;5052916;28;45516;-53
2022/12/08 06:49:17;;;;;;;;;39.75;30.50;;;;;4.36;72.03;100507.00;5047176;27;45425;-53
2022/12/08 06:51:42;;;;;;;;;39.25;32.50;;;;;4.48;72.05;100524.59;5070759;28;45590;-56
2022/12/08 06:54:08;;;;;;;;;36.25;32.75;;;;;4.39;72.44;100507.50;5073192;28;48598;-51
2022/12/08 06:56:33;;;;;;;;;35.00;27.50;;;;;4.71;72.83;100559.16;5073444;28;45306;-53
2022/12/08 06:58:59;;;;;;;;;37.50;30.00;;;;;4.75;72.83;100571.34;5074861;28;45273;-51
2022/12/08 07:01:24;;;;;;;;;44.00;31.00;;;;;4.67;72.34;100550.50;5075064;27;45136;-53
2022/12/08 07:03:50;;;;;;;;;36.00;30.75;;;;;4.80;71.94;100568.97;5074552;27;46456;-53
2022/12/08 07:06:18;;;;;;;;;41.25;35.00;;;;;4.75;71.95;100564.06;5074751;28;45261;-53
2022/12/08 07:08:44;;;;;;;;;43.00;38.40;;;;;4.77;72.37;100566.59;5056675;28;45433;-53
2022/12/08 07:11:09;;;;;;;;;40.50;34.00;;;;;4.68;71.75;100551.34;5074547;28;45355;-54
2022/12/08 07:13:35;;;;;;;;;38.75;29.50;;;;;4.74;71.81;100562.38;5074264;27;46090;-56
2022/12/08 07:16:06;;;;;;;;;37.00;29.25;;;;;4.75;71.48;100558.63;5074120;27;45421;-55
2022/12/08 07:18:32;;;;;;;;;26.20;21.20;;;;;4.15;71.64;100468.53;5073487;28;45302;-56
2022/12/08 07:21:04;;;;;;;;;33.50;30.25;;;;;4.65;71.27;100568.03;5074328;27;45953;-55
2022/12/08 07:23:30;;;;;;;;;36.40;30.20;;;;;4.64;71.36;100556.28;5074304;27;45333;-55
2022/12/08 07:25:59;;;;;;;;;29.00;25.75;;;;;4.63;71.16;100564.63;5074176;28;45423;-53
2022/12/08 07:28:25;;;;;;;;;35.60;30.60;;;;;4.58;71.33;100563.28;5056400;28;45440;-55
2022/12/08 07:30:50;;;;;;;;;31.00;27.25;;;;;4.52;71.93;100546.81;5074345;28;45452;-53
2022/12/08 07:33:16;;;;;;;;;33.00;29.25;;;;;4.45;71.40;100558.44;5074493;27;46302;-54
2022/12/08 07:35:41;;;;;;;;;40.50;29.25;;;;;4.51;72.50;100558.72;5074207;27;45498;-54
2022/12/08 07:38:09;;;;;;;;;32.75;29.00;;;;;4.54;71.74;100567.38;5074536;28;45442;-54
2022/12/08 07:40:35;;;;;;;;;33.20;25.00;;;;;4.55;71.54;100568.22;5074187;27;45507;-52
2022/12/08 07:43:01;;;;;;;;;28.75;27.75;;;;;4.55;71.51;100568.22;5073987;27;46097;-54
2022/12/08 07:45:26;;;;;;;;;31.00;25.25;;;;;4.53;71.06;100560.25;5074051;27;45455;-53
2022/12/08 07:47:52;;;;;;;;;32.75;24.00;;;;;4.51;70.98;100566.88;5074187;28;45274;-53
2022/12/08 07:50:17;;;;;;;;;31.50;27.75;;;;;4.43;71.81;100554.19;5074426;27;45871;-52
2022/12/08 07:52:42;;;;;;;;;39.25;32.00;;;;;4.49;71.13;100567.09;5073931;28;45550;-51
2022/12/08 07:55:08;;;;;;;;;22.75;21.25;;;;;4.49;71.24;100556.22;5073967;27;45743;-54
2022/12/08 07:57:34;;;;;;;;;35.00;28.50;;;;;4.43;70.86;100546.88;5076351;28;45439;-52
2022/12/08 07:59:59;;;;;;;;;43.50;32.25;;;;;4.55;71.06;100562.81;5077370;27;45398;-50
2022/12/08 08:02:25;;;;;;;;;36.50;31.00;;;;;4.58;71.45;100559.72;5077346;27;46664;-53
2022/12/08 08:04:50;;;;;;;;;35.75;31.50;;;;;4.54;70.58;100551.06;5077433;27;45469;-53
2022/12/08 08:07:16;;;;;;;;;30.50;29.25;;;;;4.42;71.14;100530.72;5077472;28;45419;-51
2022/12/08 08:09:41;;;;;;;;;39.00;31.75;;;;;4.58;71.22;100557.00;5076480;28;45420;-52
2022/12/08 08:12:08;;;;;;;;;32.00;30.00;;;;;4.60;71.37;100557.69;5037161;27;45451;-53
2022/12/08 08:14:34;;;;;;;;;40.60;29.40;;;;;4.57;71.06;100542.56;5075951;28;45251;-51
2022/12/08 08:16:59;;;;;;;;;36.75;29.25;;;;;4.62;70.16;100536.59;5077282;27;45377;-54
2022/12/08 08:19:25;;;;;;;;;31.00;28.75;;;;;4.73;70.16;100538.06;5077327;27;45156;-53
2022/12/08 08:21:50;;;;;;;;;30.75;28.75;;;;;4.74;69.84;100540.63;5076613;28;46608;-54
2022/12/08 08:24:16;;;;;;;;;33.50;25.50;;;;;4.69;70.27;100540.28;5076832;27;45353;-54
2022/12/08 08:26:42;;;;;;;;;28.25;23.00;;;;;4.65;69.82;100533.53;5058661;28;45263;-55
2022/12/08 08:29:07;;;;;;;;;38.50;30.00;;;;;4.68;70.86;100546.75;5058851;28;45600;-53
2022/12/08 08:31:33;;;;;;;;;34.25;25.75;;;;;4.69;70.17;100550.34;5076741;27;46261;-52
2022/12/08 08:34:03;;;;;;;;;29.75;24.25;;;;;4.65;69.68;100552.56;5092534;27;45371;-51
2022/12/08 08:36:29;;;;;;;;;39.00;31.40;;;;;4.69;70.60;100545.72;5077080;27;45347;-54
2022/12/08 08:38:54;;;;;;;;;34.75;30.50;;;;;4.69;69.91;100537.56;5077731;27;45340;-50
2022/12/08 08:41:20;;;;;;;;;35.25;30.00;;;;;4.77;69.84;100541.28;5076402;27;46294;-55
2022/12/08 08:43:45;;;;;;;;;42.50;27.75;;;;;4.52;69.66;100498.75;5075858;28;45367;-53
2022/12/08 08:46:11;;;;;;;;;55.00;40.25;;;;;4.66;70.44;100513.47;5075564;28;45388;-53
2022/12/08 08:48:36;;;;;;;;;36.00;29.25;;;;;4.76;69.17;100515.97;5077013;27;45708;-50
2022/12/08 08:51:09;;;;;;;;;46.50;35.50;;;;;4.84;70.47;100513.19;5076457;27;45359;-50
2022/12/08 08:53:35;;;;;;;;;38.60;31.20;;;;;4.87;69.95;100522.88;5076452;27;45395;-55
2022/12/08 08:56:00;;;;;;;;;30.25;24.00;;;;;4.87;69.29;100520.97;5076603;27;45224;-53
2022/12/08 08:58:26;;;;;;;;;28.75;26.50;;;;;4.88;69.27;100519.13;5076753;27;45478;-55
2022/12/08 09:00:52;;;;;;;;;31.50;29.00;;;;;4.88;69.70;100522.69;5076471;27;46114;-53
2022/12/08 09:03:17;;;;;;;;;30.75;30.00;;;;;4.85;69.44;100524.91;5076600;28;45393;-53
2022/12/08 09:05:43;;;;;;;;;35.75;28.00;;;;;4.86;69.36;100523.91;5076344;27;45202;-52
2022/12/08 09:08:09;;;;;;;;;27.75;27.50;;;;;4.86;69.21;100521.19;5075588;28;45344;-52
2022/12/08 09:10:36;;;;;;;;;26.80;25.40;;;;;4.61;69.61;100477.81;5071429;27;46980;-54
2022/12/08 09:13:01;;;;;;;;;28.20;28.20;;;;;4.90;68.82;100521.66;5082103;27;46251;-54
2022/12/08 09:15:27;;;;;;;;;26.75;23.75;;;;;4.72;68.44;100492.88;5060618;27;45369;-51
2022/12/08 09:17:52;;;;;;;;;28.50;26.25;;;;;4.91;68.17;100524.19;5071904;28;45518;-51
2022/12/08 09:20:18;;;;;;;;;35.00;26.25;;;;;4.89;69.29;100520.81;5073610;27;45463;-50
2022/12/08 09:22:43;;;;;;;;;26.00;23.75;;;;;4.71;68.80;100493.91;5074074;27;45373;-51
2022/12/08 09:25:09;;;;;;;;;31.25;25.00;;;;;4.90;68.13;100510.78;5059682;28;45387;-54
2022/12/08 09:27:35;;;;;;;;;30.75;27.50;;;;;4.87;68.14;100512.00;5068279;28;45346;-51
2022/12/08 09:30:00;;;;;;;;;29.25;29.25;;;;;4.67;68.86;100466.22;5074205;27;45561;-54
2022/12/08 09:32:26;;;;;;;;;28.50;24.50;;;;;4.91;68.01;100516.03;5074321;27;45284;-54
2022/12/08 09:34:53;;;;;;;;;30.50;25.75;;;;;4.92;69.08;100508.72;5074787;27;45852;-52
2022/12/08 09:37:18;;;;;;;;;30.20;26.40;;;;;4.72;67.94;100474.69;5070374;27;45413;-58
2022/12/08 09:39:44;;;;;;;;;25.75;24.00;;;;;4.93;68.37;100508.56;5074238;27;45562;-51
2022/12/08 09:42:09;;;;;;;;;30.25;25.00;;;;;4.95;69.02;100517.38;5073039;28;45474;-53
2022/12/08 09:44:44;;;;;;;;;25.75;21.50;;;;;4.95;68.78;100514.66;5073462;28;45410;-54
2022/12/08 09:47:36;;;;;;;;;25.00;22.80;;;;;4.93;68.55;100519.44;5074831;27;45472;-52
2022/12/08 09:50:38;;;;;;;;;34.00;26.20;;;;;4.96;68.37;100508.19;5040382;27;46454;-50
2022/12/08 09:53:14;;;;;;;;;25.00;22.40;;;;;5.01;68.12;100507.63;5071503;28;45681;-50
2022/12/08 09:55:49;;;;;;;;;27.00;24.00;;;;;4.89;68.77;100482.72;5057440;28;45398;-54
2022/12/08 09:58:20;;;;;;;;;30.80;24.40;;;;;5.08;68.00;100494.16;5056654;28;45413;-53
2022/12/08 10:00:45;;;;;;;;;31.80;27.20;;;;;5.09;68.09;100495.84;5064433;28;45936;-54
2022/12/08 10:03:11;;;;;;;;;33.50;27.00;;;;;5.05;67.34;100486.34;5069199;28;45356;-52
2022/12/08 10:05:41;;;;;;;;;28.75;26.25;;;;;5.11;67.82;100491.06;5073114;28;45408;-52
2022/12/08 10:08:10;;;;;;;;;30.20;27.80;;;;;5.16;67.43;100491.38;5056642;28;45379;-54
2022/12/08 10:10:42;;;;;;;;;30.80;23.80;;;;;5.19;67.83;100492.88;5070654;27;46826;-54
2022/12/08 10:13:19;;;;;;;;;26.00;25.20;;;;;5.22;67.67;100487.09;5058151;28;45410;-54
2022/12/08 10:16:08;;;;;;;;;26.20;26.20;;;;;5.18;66.94;100475.69;5052667;28;45647;-53
2022/12/08 10:18:34;;;;;;;;;23.80;21.00;;;;;4.93;67.03;100432.38;5072625;28;45420;-54
2022/12/08 10:21:10;;;;;;;;;30.75;23.75;;;;;4.40;66.79;100342.56;5073425;27;46217;-50
2022/12/08 10:23:37;;;;;;;;;33.60;24.60;;;;;5.12;67.18;100471.84;5072372;28;45505;-55
2022/12/08 10:26:10;;;;;;;;;32.80;27.20;;;;;5.06;67.92;100469.03;5060483;28;45814;-55
2022/12/08 10:28:36;;;;;;;;;23.40;22.60;;;;;5.09;67.40;100463.19;5071380;28;45418;-55
2022/12/08 10:31:01;;;;;;;;;22.00;19.50;;;;;5.08;67.87;100446.00;5073871;27;46286;-54
2022/12/08 10:33:30;;;;;;;;;31.25;24.75;;;;;5.12;67.08;100451.97;5073570;28;45415;-50
2022/12/08 10:36:01;;;;;;;;;35.60;29.40;;;;;4.99;67.32;100428.09;5073832;27;45507;-51
2022/12/08 10:38:37;;;;;;;;;32.40;26.20;;;;;5.13;66.90;100445.50;5049547;27;45497;-53
2022/12/08 10:41:09;;;;;;;;;34.20;26.60;;;;;5.25;67.41;100445.88;5066535;27;46198;-55
2022/12/08 10:43:53;;;;;;;;;33.20;28.00;;;;;5.25;66.78;100445.88;5072105;28;45441;-53
2022/12/08 10:46:21;;;;;;;;;38.00;32.00;;;;;5.18;67.03;100429.44;5055593;28;45427;-53
2022/12/08 10:48:47;;;;;;;;;37.00;32.50;;;;;5.28;66.88;100437.34;5059664;28;45477;-55
2022/12/08 10:51:22;;;;;;;;;38.00;30.60;;;;;5.32;66.79;100435.94;5051688;28;46435;-52
2022/12/08 10:53:48;;;;;;;;;37.80;30.60;;;;;5.31;67.60;100430.69;5072316;28;45372;-52
2022/12/08 10:56:14;;;;;;;;;37.50;31.75;;;;;5.32;66.50;100426.97;5072450;28;45462;-51
2022/12/08 10:58:46;;;;;;;;;37.40;31.40;;;;;5.24;66.75;100414.28;5073429;27;45417;-53
2022/12/08 11:01:28;;;;;;;;;35.00;33.00;;;;;4.82;66.66;100343.94;5071808;28;46543;-57
2022/12/08 11:03:55;;;;;;;;;33.60;27.40;;;;;5.11;67.19;100387.69;5072237;28;45441;-55
2022/12/08 11:06:31;;;;;;;;;30.60;29.20;;;;;5.23;67.13;100410.69;5073343;28;45414;-55
2022/12/08 11:08:58;;;;;;;;;36.50;32.50;;;;;5.32;66.54;100416.06;5072300;28;45316;-50
2022/12/08 11:11:46;;;;;;;;;34.40;28.80;;;;;5.26;67.35;100414.91;5071340;28;48136;-53
2022/12/08 11:14:41;;;;;;;;;36.00;30.80;;;;;5.31;66.68;100407.06;5052289;28;45555;-52
2022/12/08 11:17:10;;;;;;;;;37.60;30.20;;;;;5.28;66.35;100407.41;5048735;28;45484;-54
2022/12/08 11:19:37;;;;;;;;;48.00;37.25;;;;;5.00;66.92;100359.91;5073509;28;45574;-51
2022/12/08 11:22:26;;;;;;;;;42.80;37.20;;;;;5.24;67.03;100393.31;5071667;28;45755;-53
2022/12/08 11:25:17;;;;;;;;;33.00;29.80;;;;;4.92;67.15;100354.56;5055699;28;45485;-51
2022/12/08 11:27:45;;;;;;;;;38.80;34.60;;;;;5.06;67.78;100366.47;5071774;28;45904;-50